To NAV CANADA Home Page Login to a new session Search on AWWS site Feedback and Comments Disclaimer Vers la page française équivalente Tips FAQ What's new on the site To the Forecasts and Observations / NOTAM section To "File a Flight Plan" website Publications and other links Update of the User's profile FIC Telephone Numbers My Weather Data Folder Route Weather Data Regional Weather Data Local Weather Data To the Forecasts and Observations / NOTAM section
Request Generated 02/13/2016 at 08:41:42 UTC . Weather information available at that time is displayed.

METAR/TAF

OTTAWA/GATINEAU/QC    

LWIS CYND 130800Z AUTO 30014G21KT 270V340 M21/M27 A3000=
LWIS CYND 130700Z AUTO 31011G20KT M19/M24 A2995=
LWIS CYND 130600Z AUTO 33013G18KT M18/M22 A2991=

*** REMARK        : Forecast period has ended; this was the last TAF issued
*** REMARQUE : La période de prévision est échue; ceci était le dernier TAF qui a été émis
TAF CYND 122338Z 1300/1302 30010G20KT P6SM -SN OVC030 TEMPO 1300/1302
1/2SM SHSN VV005
RMK NXT FCST WILL BE ISSUED AT 131345Z=
Your time UTC time
Weather data provided by Environment Canada and NAV CANADA